Time;durP1;ratioP1;P1;durP2;ratioP2;P2;SDS_P1;SDS_P2;PMS_P1;PMS_P2;Temp;Humidity;BMP_temperature;BMP_pressure;BME280_temperature;BME280_humidity;BME280_pressure;Samples;Min_cycle;Max_cycle;Signal;HPM_P1;HPM_P2
2021/12/17 00:04:49;;;;;;;12.53;4.23;;;;;;;5.05;83.75;101799.16;5010516;28;106089;-66
2021/12/17 00:07:15;;;;;;;13.75;3.25;;;;;;;5.08;83.59;101798.13;5009698;28;106311;-66
2021/12/17 00:09:44;;;;;;;8.40;3.78;;;;;;;5.08;83.59;101801.63;5009584;28;106280;-66
2021/12/17 00:12:12;;;;;;;10.10;3.78;;;;;;;5.09;83.31;101797.19;5008231;28;106914;-66
2021/12/17 00:14:40;;;;;;;16.33;4.20;;;;;;;5.09;83.27;101807.75;5010254;28;106085;-66
2021/12/17 00:17:11;;;;;;;13.60;3.80;;;;;;;5.11;83.41;101797.09;5009962;28;106302;-66
2021/12/17 00:49:37;;;;;;;16.25;3.97;;;;;;;5.11;82.91;101807.66;5006739;28;106275;-66
2021/12/17 00:52:03;;;;;;;18.20;3.97;;;;;;;5.09;83.11;101810.41;5009066;28;106052;-66
2021/12/17 00:54:40;;;;;;;11.35;4.15;;;;;;;5.08;83.20;101804.28;5009089;28;106029;-66
2021/12/17 00:57:24;;;;;;;12.40;3.67;;;;;;;5.09;82.96;101818.31;5009749;28;106158;-65
2021/12/17 00:59:51;;;;;;;7.90;3.47;;;;;;;5.08;83.02;101812.19;5007515;28;106023;-66
2021/12/17 01:02:21;;;;;;;8.05;3.00;;;;;;;5.09;82.82;101826.25;5008628;28;106631;-67
2021/12/17 01:04:51;;;;;;;9.35;3.63;;;;;;;5.09;82.99;101810.41;5008854;28;106487;-66
2021/12/17 01:07:19;;;;;;;12.07;3.80;;;;;;;5.09;82.97;101821.81;5009402;28;106149;-66
2021/12/17 01:09:45;;;;;;;18.80;4.22;;;;;;;5.10;82.91;101814.75;5009149;28;105673;-66
2021/12/17 01:12:12;;;;;;;9.77;3.65;;;;;;;5.08;82.94;101817.50;5008608;28;106131;-66
2021/12/17 01:14:40;;;;;;;19.13;4.93;;;;;;;5.06;82.77;101814.06;5008562;28;106412;-67
2021/12/17 01:17:07;;;;;;;11.32;3.88;;;;;;;5.04;82.72;101825.69;5009605;28;106020;-66
2021/12/17 01:22:48;;;;;;;12.40;4.28;;;;;;;5.04;82.88;101828.31;5008845;28;106398;-70
2021/12/17 01:25:33;;;;;;;16.98;4.68;;;;;;;5.03;82.83;101827.47;5006881;28;106282;-65
2021/12/17 01:36:11;;;;;;;9.75;3.92;;;;;;;4.96;82.57;101833.22;5008507;28;105862;-65
2021/12/17 01:39:40;;;;;;;13.15;4.60;;;;;;;4.95;83.04;101821.81;5009368;28;105921;-66
2021/12/17 01:44:30;;;;;;;15.77;3.88;;;;;;;4.94;82.99;101817.47;5005880;28;106549;-65
2021/12/17 01:46:57;;;;;;;14.43;3.97;;;;;;;4.93;82.52;101815.75;5008074;28;106013;-65
2021/12/17 02:00:09;;;;;;;12.43;3.90;;;;;;;4.94;82.73;101808.72;5008768;28;105964;-66
2021/12/17 02:02:42;;;;;;;11.80;3.97;;;;;;;4.93;82.63;101805.19;5007450;28;105992;-66
2021/12/17 02:05:09;;;;;;;12.80;4.45;;;;;;;4.92;82.68;101811.41;5007267;28;106102;-66
2021/12/17 02:07:34;;;;;;;11.65;3.80;;;;;;;4.90;82.40;101808.88;5007706;28;106324;-66
2021/12/17 02:29:01;;;;;;;9.90;4.13;;;;;;;4.82;81.95;101791.81;5008324;28;106440;-66
2021/12/17 02:31:31;;;;;;;7.20;3.45;;;;;;;4.82;82.35;101786.53;5011276;28;106211;-66
2021/12/17 02:34:02;;;;;;;9.60;4.33;;;;;;;4.81;82.20;101776.91;5010945;28;106227;-66
2021/12/17 02:36:31;;;;;;;10.85;3.92;;;;;;;4.78;82.23;101790.28;5010838;28;105985;-66
2021/12/17 02:39:20;;;;;;;8.60;3.93;;;;;;;4.78;82.32;101785.00;5010723;28;105903;-65
2021/12/17 02:47:13;;;;;;;14.90;3.97;;;;;;;4.74;82.25;101792.25;5010920;28;106371;-64
2021/12/17 02:49:42;;;;;;;9.70;3.30;;;;;;;4.72;82.44;101789.72;5010492;28;106224;-66
2021/12/17 02:52:09;;;;;;;10.13;3.58;;;;;;;4.72;82.08;101787.09;5011341;28;106035;-66
2021/12/17 02:54:37;;;;;;;13.90;4.13;;;;;;;4.74;82.21;101787.84;5010769;28;106283;-67
2021/12/17 02:57:07;;;;;;;7.80;3.45;;;;;;;4.73;82.04;101790.59;5010317;28;106219;-66
2021/12/17 02:59:34;;;;;;;14.55;4.35;;;;;;;4.74;82.24;101789.63;5010477;28;105749;-66
2021/12/17 03:02:03;;;;;;;12.05;4.10;;;;;;;4.74;82.43;101801.06;5010960;28;105977;-66
2021/12/17 03:04:30;;;;;;;19.27;4.60;;;;;;;4.76;82.23;101787.75;5009883;28;106280;-65
2021/12/17 03:06:57;;;;;;;14.18;3.50;;;;;;;4.76;81.87;101790.41;5010053;28;106074;-66
2021/12/17 03:09:36;;;;;;;13.30;3.28;;;;;;;4.75;82.13;101800.09;5009074;28;106332;-65
2021/12/17 03:12:08;;;;;;;11.30;4.10;;;;;;;4.74;82.15;101795.78;5011095;28;106076;-66
2021/12/17 03:14:40;;;;;;;13.55;3.33;;;;;;;4.76;82.15;101793.03;5009801;28;106204;-65
2021/12/17 03:17:10;;;;;;;12.60;3.47;;;;;;;4.76;82.24;101785.13;5009761;28;105925;-66
2021/12/17 03:25:03;;;;;;;12.50;3.75;;;;;;;4.78;82.09;101806.13;5007392;28;105900;-66
2021/12/17 03:27:29;;;;;;;14.27;3.85;;;;;;;4.77;81.98;101799.16;5010201;28;106583;-66
2021/12/17 03:29:54;;;;;;;10.55;3.42;;;;;;;4.78;82.12;101809.63;5009948;28;106448;-66
2021/12/17 03:32:19;;;;;;;14.88;4.20;;;;;;;4.79;81.80;101811.31;5010555;28;106072;-65
2021/12/17 03:34:45;;;;;;;14.43;4.72;;;;;;;4.81;81.86;101813.88;5010064;28;106130;-65
2021/12/17 03:37:10;;;;;;;10.85;3.88;;;;;;;4.81;81.96;101816.50;5009646;28;105876;-65
2021/12/17 03:39:37;;;;;;;10.95;3.20;;;;;;;4.82;81.84;101808.50;5009575;28;105924;-65
2021/12/17 03:42:06;;;;;;;13.20;5.05;;;;;;;4.82;81.89;101811.13;5010021;28;106117;-65
2021/12/17 03:44:32;;;;;;;12.18;3.85;;;;;;;4.83;81.86;101809.34;5009421;28;106438;-66
2021/12/17 03:46:58;;;;;;;13.82;3.58;;;;;;;4.83;81.93;101807.56;5009003;28;106851;-65
2021/12/17 03:49:23;;;;;;;9.32;3.67;;;;;;;4.83;81.82;101804.91;5009288;28;105859;-65
2021/12/17 03:51:53;;;;;;;12.20;3.83;;;;;;;4.83;81.83;101809.34;5009703;28;106060;-65
2021/12/17 03:54:19;;;;;;;19.13;5.80;;;;;;;4.83;81.67;101812.00;5009665;28;106191;-64
2021/12/17 03:56:44;;;;;;;14.25;3.85;;;;;;;4.83;81.86;101810.19;5009449;28;106748;-65
2021/12/17 03:59:10;;;;;;;10.75;3.88;;;;;;;4.84;81.73;101818.94;5009071;28;105913;-65
2021/12/17 04:01:38;;;;;;;9.07;2.92;;;;;;;4.84;81.65;101805.75;5010041;28;106661;-65
2021/12/17 04:04:04;;;;;;;17.08;4.38;;;;;;;4.85;82.02;101797.75;5009430;28;106335;-65
2021/12/17 04:06:29;;;;;;;16.25;4.47;;;;;;;4.85;81.63;101803.03;5009020;28;105996;-65
2021/12/17 04:08:55;;;;;;;10.43;2.72;;;;;;;4.86;81.56;101810.00;5009293;28;106115;-65
2021/12/17 04:11:21;;;;;;;12.02;3.95;;;;;;;4.87;81.82;101810.88;5009715;28;105911;-66
2021/12/17 04:13:54;;;;;;;11.13;3.97;;;;;;;4.86;81.75;101796.78;5009188;28;105912;-66
2021/12/17 04:16:24;;;;;;;10.65;3.67;;;;;;;4.86;81.55;101790.69;5008234;28;107021;-67
2021/12/17 04:18:49;;;;;;;11.07;3.50;;;;;;;4.84;81.48;101785.50;5008905;28;106059;-66
2021/12/17 04:21:15;;;;;;;11.77;4.15;;;;;;;4.83;81.62;101794.34;5009933;28;105882;-65
2021/12/17 04:23:42;;;;;;;14.65;5.13;;;;;;;4.82;81.63;101783.88;5009364;28;106106;-66
2021/12/17 04:26:08;;;;;;;12.88;3.70;;;;;;;4.81;81.59;101793.63;5008763;28;106381;-65
2021/12/17 04:28:37;;;;;;;12.93;3.30;;;;;;;4.83;81.58;101796.16;5008458;28;105802;-65
2021/12/17 04:31:02;;;;;;;11.90;3.67;;;;;;;4.83;81.44;101788.22;5008591;28;105883;-65
2021/12/17 04:33:27;;;;;;;14.52;3.72;;;;;;;4.83;81.51;101785.59;5008677;28;105848;-65
2021/12/17 04:35:53;;;;;;;11.90;4.10;;;;;;;4.82;81.31;101776.81;5008596;28;106278;-66
2021/12/17 04:38:20;;;;;;;14.88;3.90;;;;;;;4.83;81.38;101775.03;5008121;28;106248;-67
2021/12/17 04:40:48;;;;;;;14.57;3.53;;;;;;;4.83;81.72;101767.09;5008392;28;106136;-67
2021/12/17 04:43:18;;;;;;;8.25;3.47;;;;;;;4.84;81.22;101758.22;5008680;28;106227;-66
2021/12/17 04:46:12;;;;;;;9.05;2.38;;;;;;;4.83;81.31;101759.19;5008892;28;106461;-66
2021/12/17 04:59:32;;;;;;;10.43;3.67;;;;;;;4.74;81.13;101755.31;5008219;28;106138;-65
2021/12/17 05:02:01;;;;;;;11.00;3.65;;;;;;;4.72;81.34;101747.47;5008472;28;105809;-65
2021/12/17 05:04:27;;;;;;;11.15;3.10;;;;;;;4.71;81.16;101732.56;5008483;28;106137;-67
2021/12/17 05:06:52;;;;;;;12.73;3.17;;;;;;;4.68;80.86;101742.50;5008056;28;106470;-65
2021/12/17 05:09:35;;;;;;;12.25;3.17;;;;;;;4.66;80.92;101747.00;5007858;28;110687;-67
2021/12/17 05:20:27;;;;;;;8.50;2.47;;;;;;;4.51;80.56;101736.44;5006800;28;105989;-66
2021/12/17 05:22:57;;;;;;;;;;;;;;;4.46;80.61;101742.94;5006550;28;105929;-64
2021/12/17 05:25:26;;;;;;;6.30;2.70;;;;;;;4.40;80.55;101737.09;5006254;28;106977;-64
2021/12/17 05:27:52;;;;;;;16.27;3.95;;;;;;;4.36;80.63;101734.72;5006981;28;106067;-64
2021/12/17 05:30:17;;;;;;;11.88;3.03;;;;;;;4.34;80.83;101729.53;5005396;28;105919;-65
2021/12/17 05:32:43;;;;;;;15.57;3.70;;;;;;;4.34;80.57;101731.34;5007936;28;105968;-64
2021/12/17 05:35:08;;;;;;;8.23;2.85;;;;;;;4.30;80.88;101738.56;5006917;28;106018;-64
2021/12/17 05:37:33;;;;;;;11.88;3.38;;;;;;;4.33;80.98;101745.47;5005569;28;106226;-64
2021/12/17 05:39:59;;;;;;;13.15;4.95;;;;;;;4.34;81.08;101740.09;5006665;28;106112;-65
2021/12/17 05:42:25;;;;;;;14.35;4.40;;;;;;;4.37;81.00;101749.59;5007389;28;105984;-65
2021/12/17 05:44:55;;;;;;;11.10;3.10;;;;;;;4.40;80.98;101757.34;5007878;28;106146;-64
2021/12/17 05:47:21;;;;;;;;;;;;;;;4.43;80.96;101761.59;5008128;28;106011;-65
2021/12/17 05:49:46;;;;;;;10.45;2.70;;;;;;;4.42;80.88;101747.56;5007678;28;105968;-65
2021/12/17 05:52:11;;;;;;;9.93;3.33;;;;;;;4.39;80.45;101734.56;5008274;28;105795;-64
2021/12/17 05:54:37;;;;;;;13.05;3.25;;;;;;;4.33;80.45;101750.72;5010262;28;105695;-65
2021/12/17 05:57:03;;;;;;;13.07;3.85;;;;;;;4.28;80.46;101752.78;5011073;28;105818;-64
2021/12/17 05:59:33;;;;;;;11.95;3.05;;;;;;;4.22;80.32;101756.66;5009093;28;106416;-64
2021/12/17 06:02:01;;;;;;;13.02;3.63;;;;;;;4.15;80.52;101755.31;5009984;28;106346;-65
2021/12/17 06:04:26;;;;;;;9.30;3.30;;;;;;;4.10;80.53;101757.38;5007467;28;106252;-66
2021/12/17 06:06:52;;;;;;;14.57;4.90;;;;;;;4.07;80.44;101768.94;5008834;28;106299;-67
2021/12/17 06:09:17;;;;;;;9.90;3.35;;;;;;;4.04;80.33;101758.56;5009035;28;106133;-64
2021/12/17 06:11:43;;;;;;;10.80;4.07;;;;;;;3.97;80.33;101781.81;5009635;28;106043;-63
2021/12/17 06:14:08;;;;;;;12.65;3.78;;;;;;;3.88;80.43;101779.69;5009311;28;106202;-65
2021/12/17 06:16:34;;;;;;;9.38;3.35;;;;;;;3.83;80.52;101772.06;5008567;28;106225;-65
2021/12/17 06:19:03;;;;;;;15.98;4.15;;;;;;;3.78;80.19;101775.91;4994470;28;105984;-67
2021/12/17 06:21:29;;;;;;;14.55;3.28;;;;;;;3.73;80.67;101776.13;4990080;28;105961;-65
2021/12/17 06:23:54;;;;;;;9.80;4.35;;;;;;;3.72;81.34;101780.56;4989746;28;106749;-66
2021/12/17 06:26:20;;;;;;;13.75;4.03;;;;;;;3.76;81.16;101786.53;4989275;28;107064;-66
2021/12/17 06:28:49;;;;;;;12.63;4.50;;;;;;;3.80;80.81;101772.25;4988757;28;106084;-66
2021/12/17 06:31:16;;;;;;;11.85;3.20;;;;;;;3.80;80.80;101781.91;4989356;28;106113;-66
2021/12/17 06:33:41;;;;;;;11.18;4.18;;;;;;;3.84;81.55;101778.16;4988944;28;106671;-67
2021/12/17 06:36:06;;;;;;;11.57;3.38;;;;;;;3.87;81.29;101775.38;4988738;28;108357;-64
2021/12/17 06:38:32;;;;;;;10.07;3.50;;;;;;;3.87;81.31;101780.66;4989004;28;106032;-64
2021/12/17 06:40:58;;;;;;;11.18;2.90;;;;;;;3.87;81.37;101791.19;4989346;28;105903;-64
2021/12/17 06:43:30;;;;;;;11.00;3.20;;;;;;;3.87;80.85;101784.13;4988739;28;105983;-64
2021/12/17 06:46:05;;;;;;;9.85;3.55;;;;;;;3.86;80.94;101795.59;4988956;28;106969;-64
2021/12/17 06:48:32;;;;;;;17.35;4.15;;;;;;;3.90;80.77;101799.75;4988311;28;106023;-64
2021/12/17 06:56:42;;;;;;;10.93;4.13;;;;;;;3.99;81.38;101789.63;4988631;28;106468;-66
2021/12/17 06:59:20;;;;;;;10.32;3.40;;;;;;;4.04;81.15;101792.84;4987850;28;105953;-67
2021/12/17 07:10:29;;;;;;;7.82;3.05;;;;;;;4.20;81.13;101795.47;4988776;28;106207;-65
2021/12/17 07:23:50;;;;;;;10.03;3.43;;;;;;;4.37;80.60;101791.81;4994294;28;106428;-61
2021/12/17 07:34:08;;;;;;;15.38;4.20;;;;;;;4.49;80.11;101804.28;5010257;28;106021;-62
2021/12/17 07:36:41;;;;;;;10.55;3.70;;;;;;;4.52;80.35;101806.75;5009338;28;106151;-64
2021/12/17 07:39:06;;;;;;;8.82;3.50;;;;;;;4.56;79.97;101787.16;5008955;28;105898;-62
2021/12/17 07:41:32;;;;;;;14.00;3.72;;;;;;;4.59;79.91;101794.03;5009047;28;105878;-63
2021/12/17 07:43:59;;;;;;;9.27;2.92;;;;;;;4.63;79.88;101782.34;5009942;28;105848;-63
2021/12/17 07:46:25;;;;;;;7.40;3.22;;;;;;;4.62;79.42;101780.69;5008727;28;106247;-64
2021/12/17 07:48:52;;;;;;;8.65;3.50;;;;;;;4.67;79.86;101788.31;5008987;28;106452;-63
2021/12/17 07:51:18;;;;;;;12.45;3.95;;;;;;;4.71;79.77;101787.19;5008819;28;106175;-62
2021/12/17 07:53:46;;;;;;;14.93;3.90;;;;;;;4.81;79.59;101798.91;5009804;28;107065;-63
2021/12/17 07:56:14;;;;;;;14.38;4.25;;;;;;;4.88;79.84;101799.34;5009271;28;106194;-63
2021/12/17 07:58:41;;;;;;;13.85;3.63;;;;;;;4.92;79.32;101795.56;5009028;28;106226;-63
2021/12/17 08:01:08;;;;;;;13.15;3.97;;;;;;;4.91;79.16;101804.47;5008981;28;105784;-64
2021/12/17 08:03:34;;;;;;;12.82;4.10;;;;;;;4.93;79.56;101805.19;5008771;28;106028;-64
2021/12/17 08:06:00;;;;;;;10.70;4.40;;;;;;;4.97;79.45;101816.44;5007872;28;106127;-66
2021/12/17 08:08:26;;;;;;;12.52;3.72;;;;;;;4.98;79.05;101812.84;5004984;28;106460;-64
2021/12/17 08:10:51;;;;;;;8.57;3.45;;;;;;;5.01;79.50;101818.78;5006980;28;106357;-64
2021/12/17 08:13:23;;;;;;;12.68;3.35;;;;;;;5.02;79.06;101815.22;5007330;28;106108;-65
2021/12/17 08:31:28;;;;;;;7.50;3.05;;;;;;;5.04;77.92;101820.38;5001508;28;106112;-64
2021/12/17 08:33:53;;;;;;;10.38;4.18;;;;;;;5.01;78.09;101824.06;5009421;28;106830;-64
2021/12/17 08:36:19;;;;;;;8.65;3.28;;;;;;;5.03;78.50;101827.47;5015479;27;106230;-64
2021/12/17 08:38:46;;;;;;;8.55;3.13;;;;;;;5.06;78.19;101843.13;5018484;28;106013;-64
2021/12/17 08:41:14;;;;;;;8.20;3.65;;;;;;;5.04;77.77;101837.09;5007196;27;106107;-64
2021/12/17 08:43:41;;;;;;;8.65;3.63;;;;;;;5.00;77.48;101842.66;5007084;28;106086;-64
2021/12/17 08:46:06;;;;;;;10.90;3.85;;;;;;;4.96;77.86;101852.56;5006962;28;105916;-65
2021/12/17 08:48:32;;;;;;;8.35;3.60;;;;;;;4.97;77.54;101842.84;5006730;28;105909;-65
2021/12/17 08:50:58;;;;;;;7.63;3.72;;;;;;;4.95;77.73;101845.59;5006527;28;105822;-65
2021/12/17 08:53:23;;;;;;;13.10;3.38;;;;;;;4.94;77.69;101854.44;5007339;28;106027;-64
2021/12/17 08:55:49;;;;;;;9.88;4.32;;;;;;;4.93;78.09;101850.09;5007084;28;106429;-69
2021/12/17 08:58:14;;;;;;;9.95;3.55;;;;;;;4.98;78.01;101850.69;5008236;28;106191;-70
2021/12/17 09:00:44;;;;;;;13.90;3.78;;;;;;;5.08;78.06;101857.13;5008188;28;106053;-70
2021/12/17 09:03:10;;;;;;;16.57;4.63;;;;;;;5.11;77.49;101844.66;5008152;28;105758;-68
2021/12/17 09:05:41;;;;;;;15.48;3.60;;;;;;;5.12;77.59;101844.53;5005368;28;106102;-68
2021/12/17 09:08:09;;;;;;;10.80;3.92;;;;;;;5.12;77.45;101852.47;5006181;28;106667;-69
2021/12/17 09:10:35;;;;;;;9.48;4.22;;;;;;;5.13;77.40;101848.06;5006223;28;106008;-69
2021/12/17 09:13:01;;;;;;;13.93;4.38;;;;;;;5.15;77.43;101839.06;5006177;28;106237;-68
2021/12/17 09:15:27;;;;;;;17.52;4.45;;;;;;;5.17;77.20;101854.84;5003446;28;106390;-68
2021/12/17 09:17:52;;;;;;;20.20;4.68;;;;;;;5.18;77.73;101854.75;5005430;28;106291;-69
2021/12/17 09:20:18;;;;;;;20.23;6.38;;;;;;;5.21;77.37;101845.78;5006503;28;106376;-69
2021/12/17 09:22:44;;;;;;;19.67;7.00;;;;;;;5.24;77.24;101850.88;5007117;28;106931;-67
2021/12/17 09:25:10;;;;;;;11.50;3.70;;;;;;;5.30;77.05;101850.47;5006279;28;106209;-67
2021/12/17 09:27:36;;;;;;;35.83;17.95;;;;;;;5.32;77.25;101845.97;5005801;28;106104;-67
2021/12/17 09:30:07;;;;;;;40.13;15.82;;;;;;;5.38;76.80;101848.22;5003882;28;106026;-66
2021/12/17 09:32:33;;;;;;;19.40;10.82;;;;;;;5.40;77.00;101841.06;5004003;28;106190;-66
2021/12/17 09:34:59;;;;;;;9.45;4.82;;;;;;;5.43;76.72;101837.38;5005573;28;106222;-66
2021/12/17 09:37:24;;;;;;;13.63;5.70;;;;;;;5.43;76.65;101840.84;5005878;28;106571;-66
2021/12/17 09:39:49;;;;;;;20.73;8.23;;;;;;;5.44;76.79;101841.72;5006160;28;106101;-68
2021/12/17 09:42:15;;;;;;;16.90;5.93;;;;;;;5.43;76.82;101840.84;5006218;28;106033;-67
2021/12/17 09:44:41;;;;;;;12.73;5.40;;;;;;;5.41;76.47;101834.81;5005786;28;106226;-68
2021/12/17 09:47:07;;;;;;;14.15;6.28;;;;;;;5.39;76.30;101849.06;5005756;28;106502;-69
2021/12/17 09:49:32;;;;;;;13.30;4.43;;;;;;;5.39;76.23;101842.00;5003827;28;106475;-67
2021/12/17 09:51:59;;;;;;;9.50;4.40;;;;;;;5.37;76.52;101845.66;5006315;28;106057;-69
2021/12/17 09:54:25;;;;;;;10.55;3.83;;;;;;;5.33;76.10;101830.94;5005062;28;106794;-67
2021/12/17 09:56:51;;;;;;;9.43;4.05;;;;;;;5.30;76.36;101829.34;5005420;28;105996;-67
2021/12/17 09:59:16;;;;;;;12.38;4.93;;;;;;;5.31;76.40;101831.03;5005428;28;105905;-69
2021/12/17 10:01:43;;;;;;;9.43;5.07;;;;;;;5.31;76.10;101828.41;5005942;28;106113;-69
2021/12/17 10:04:18;;;;;;;9.75;4.47;;;;;;;5.33;76.47;101828.31;5005915;28;106181;-68
2021/12/17 10:06:46;;;;;;;12.18;4.13;;;;;;;5.36;76.25;101833.41;5003808;28;106719;-68
2021/12/17 10:09:12;;;;;;;11.68;4.95;;;;;;;5.41;76.07;101826.91;5004084;28;106941;-68
2021/12/17 10:11:37;;;;;;;9.88;3.70;;;;;;;5.46;75.90;101838.97;5006306;28;105985;-68
2021/12/17 10:14:17;;;;;;;10.77;4.82;;;;;;;5.47;76.12;101838.00;5004234;28;106196;-69
2021/12/17 10:16:43;;;;;;;13.07;4.50;;;;;;;5.52;75.87;101828.00;5005576;28;106037;-69
2021/12/17 10:19:08;;;;;;;14.35;4.22;;;;;;;5.55;75.72;101833.94;5004256;28;106036;-68
2021/12/17 10:21:38;;;;;;;11.57;3.88;;;;;;;5.65;75.75;101839.50;5006420;28;106477;-67
2021/12/17 10:24:04;;;;;;;11.48;4.40;;;;;;;5.83;75.81;101826.88;5005995;28;105992;-67
2021/12/17 10:26:41;;;;;;;9.80;3.63;;;;;;;5.95;75.45;101835.84;5004743;28;105981;-68
2021/12/17 10:29:06;;;;;;;13.18;4.57;;;;;;;6.01;75.23;101832.81;5005275;28;106499;-67
2021/12/17 10:31:36;;;;;;;13.23;3.80;;;;;;;6.16;75.21;101846.81;5005090;28;106304;-67
2021/12/17 10:34:04;;;;;;;9.43;3.50;;;;;;;6.25;74.96;101848.88;5005338;28;106264;-67
2021/12/17 10:36:41;;;;;;;7.45;3.63;;;;;;;6.25;74.21;101846.22;5005494;28;106509;-67
2021/12/17 10:39:29;;;;;;;9.98;3.13;;;;;;;6.14;73.82;101850.53;5005705;28;106057;-69
2021/12/17 10:41:55;;;;;;;11.10;2.97;;;;;;;6.20;74.84;101850.97;5009045;28;106064;-68
2021/12/17 10:44:21;;;;;;;11.10;4.18;;;;;;;6.27;74.63;101846.13;5007139;28;106336;-69
2021/12/17 10:49:57;;;;;;;11.32;4.28;;;;;;;6.33;74.42;101828.97;4997656;28;106649;-66
2021/12/17 10:52:34;;;;;;;8.50;3.35;;;;;;;6.36;73.97;101829.63;5008755;28;106072;-67
2021/12/17 10:55:16;;;;;;;10.48;2.97;;;;;;;6.31;73.83;101821.16;5006686;28;106559;-67
2021/12/17 10:57:43;;;;;;;11.77;4.97;;;;;;;6.41;73.74;101829.31;5008326;28;106030;-68
2021/12/17 11:00:10;;;;;;;12.88;3.80;;;;;;;6.89;73.48;101813.72;5007852;28;106088;-69
2021/12/17 11:02:37;;;;;;;16.52;4.05;;;;;;;7.44;74.47;101827.50;5008762;28;106516;-68
2021/12/17 11:05:13;;;;;;;10.70;4.30;;;;;;;7.84;72.81;101829.09;5007843;28;106446;-68
2021/12/17 11:07:39;;;;;;;14.88;5.50;;;;;;;9.09;74.06;101809.09;5007692;28;106045;-67
2021/12/17 11:10:05;;;;;;;13.30;4.82;;;;;;;8.74;71.14;101817.97;5006948;28;106167;-69
2021/12/17 11:12:40;;;;;;;15.43;4.35;;;;;;;8.21;70.09;101836.16;5008863;28;106162;-68
2021/12/17 11:15:30;;;;;;;13.00;3.65;;;;;;;7.76;70.12;101827.03;5008820;28;106144;-68
2021/12/17 11:17:58;;;;;;;16.55;5.43;;;;;;;7.54;70.68;101814.44;5007803;28;107334;-68
2021/12/17 11:20:29;;;;;;;9.63;3.72;;;;;;;8.80;72.31;101811.34;5008299;28;106984;-71
2021/12/17 11:22:57;;;;;;;6.40;2.90;;;;;;;9.28;68.59;101799.63;5009058;28;106127;-69
2021/12/17 11:25:24;;;;;;;14.73;2.95;;;;;;;8.66;68.34;101822.22;5006908;28;106383;-67
2021/12/17 11:27:51;;;;;;;9.15;2.92;;;;;;;8.34;68.40;101814.81;5008099;28;105875;-68
2021/12/17 11:30:20;;;;;;;7.60;2.45;;;;;;;8.12;69.10;101821.78;5007369;28;106004;-69
2021/12/17 11:32:48;;;;;;;8.20;2.88;;;;;;;8.03;68.88;101839.19;5008108;28;106512;-66
2021/12/17 11:35:17;;;;;;;4.78;2.25;;;;;;;7.72;68.63;101829.97;5007928;28;105992;-68
2021/12/17 11:37:46;;;;;;;10.85;3.13;;;;;;;7.54;68.22;101832.16;5007700;28;107003;-67
2021/12/17 11:40:33;;;;;;;6.72;2.60;;;;;;;7.57;69.10;101837.25;5007637;28;106311;-71
2021/12/17 11:43:10;;;;;;;7.88;2.83;;;;;;;7.51;68.13;101819.13;5007960;28;106024;-70
2021/12/17 11:45:36;;;;;;;12.93;3.10;;;;;;;7.24;67.71;101820.13;5007620;28;105899;-68
2021/12/17 11:48:22;;;;;;;6.38;2.40;;;;;;;7.73;69.02;101826.38;5007535;28;106022;-69
2021/12/17 11:51:14;;;;;;;7.35;2.67;;;;;;;11.51;72.76;101819.22;5006423;28;106029;-68
2021/12/17 11:53:42;;;;;;;9.63;3.30;;;;;;;12.54;64.38;101792.97;5008213;28;106399;-68
2021/12/17 11:56:07;;;;;;;8.30;2.50;;;;;;;13.00;63.62;101801.16;5008218;28;105981;-67
2021/12/17 11:58:53;;;;;;;6.50;2.42;;;;;;;13.13;60.95;101798.97;5006914;28;106541;-68
2021/12/17 12:01:49;;;;;;;10.02;2.83;;;;;;;14.37;62.00;101811.81;5006886;28;106645;-67
2021/12/17 12:04:33;;;;;;;9.55;2.40;;;;;;;14.36;57.42;101807.47;5008373;28;106080;-69
2021/12/17 12:07:17;;;;;;;10.80;2.28;;;;;;;12.81;56.72;101807.41;5007567;28;106704;-70
2021/12/17 12:10:04;;;;;;;11.25;2.95;;;;;;;11.27;57.24;101811.53;5007502;28;105949;-69
2021/12/17 12:12:34;;;;;;;14.13;4.38;;;;;;;10.25;57.68;101815.72;5007655;28;106490;-69
2021/12/17 12:15:22;;;;;;;5.70;2.53;;;;;;;9.43;58.94;101808.19;5008263;28;106109;-68
2021/12/17 12:18:08;;;;;;;8.93;2.50;;;;;;;8.76;60.24;101810.75;5007349;28;106284;-66
2021/12/17 12:20:46;;;;;;;8.65;2.63;;;;;;;8.47;61.22;101810.31;4987338;28;106866;-67
2021/12/17 12:23:31;;;;;;;7.10;2.10;;;;;;;8.09;61.74;101820.19;4987159;28;106107;-67
2021/12/17 12:26:02;;;;;;;7.05;2.10;;;;;;;7.68;62.86;101815.25;5004945;28;106136;-66
2021/12/17 12:31:17;;;;;;;5.68;2.78;;;;;;;7.18;63.42;101817.94;5006106;28;106144;-68
2021/12/17 12:34:01;;;;;;;8.63;3.35;;;;;;;7.07;63.70;101823.97;5006676;28;106109;-66
2021/12/17 12:36:54;;;;;;;8.80;4.03;;;;;;;6.98;63.72;101814.03;5005990;28;106593;-67
2021/12/17 12:39:24;;;;;;;9.35;3.22;;;;;;;6.86;63.93;101800.69;5007035;28;106140;-67
2021/12/17 12:42:02;;;;;;;7.88;3.13;;;;;;;6.77;64.80;101791.53;5006575;28;106467;-68
2021/12/17 12:44:46;;;;;;;9.25;3.20;;;;;;;6.61;64.50;101788.25;5007146;28;105968;-69
2021/12/17 12:47:11;;;;;;;7.25;3.15;;;;;;;6.46;65.04;101798.09;5006295;28;105966;-68
2021/12/17 12:49:47;;;;;;;10.57;3.63;;;;;;;6.43;65.59;101801.78;5006790;28;106173;-67
2021/12/17 12:52:25;;;;;;;9.07;3.40;;;;;;;6.35;65.84;101798.81;5005270;28;108255;-68
2021/12/17 12:54:52;;;;;;;8.38;3.45;;;;;;;6.25;65.91;101795.09;5005957;28;106324;-67
2021/12/17 12:57:34;;;;;;;4.93;3.13;;;;;;;6.15;65.87;101791.38;5007496;28;106036;-68
2021/12/17 13:00:13;;;;;;;10.00;3.20;;;;;;;5.99;66.23;101780.97;5007074;28;106059;-68
2021/12/17 13:02:39;;;;;;;6.95;3.42;;;;;;;5.93;66.43;101798.91;5004188;28;107895;-67
2021/12/17 13:05:07;;;;;;;10.88;2.90;;;;;;;5.94;66.47;101797.09;5006322;28;106334;-67
2021/12/17 13:07:41;;;;;;;14.05;3.30;;;;;;;5.86;66.73;101789.66;5006891;28;106271;-66
2021/12/17 13:10:23;;;;;;;10.93;3.50;;;;;;;5.90;67.05;101785.03;5006667;28;105885;-65
2021/12/17 13:13:02;;;;;;;7.07;2.60;;;;;;;5.86;66.46;101804.69;5006845;28;106735;-66
2021/12/17 13:24:08;;;;;;;5.55;2.30;;;;;;;5.50;66.85;101793.72;5004604;28;106409;-67
2021/12/17 13:26:34;;;;;;;6.25;2.63;;;;;;;5.48;67.29;101792.13;5007946;28;106044;-66
2021/12/17 13:29:04;;;;;;;7.47;2.83;;;;;;;5.43;67.12;101781.88;5008557;28;105843;-67
2021/12/17 13:31:35;;;;;;;5.00;2.28;;;;;;;5.29;67.10;101801.25;5007463;28;106159;-67
2021/12/17 13:34:05;;;;;;;7.38;2.60;;;;;;;5.18;67.29;101798.41;5006277;28;106138;-66
2021/12/17 13:36:30;;;;;;;8.95;2.60;;;;;;;5.07;67.42;101797.28;5006531;28;106150;-67
2021/12/17 13:38:57;;;;;;;12.45;3.42;;;;;;;5.01;67.87;101795.00;5008027;28;106432;-67
2021/12/17 13:41:52;;;;;;;8.18;2.78;;;;;;;4.99;67.88;101785.47;5006830;28;106256;-67
2021/12/17 13:44:42;;;;;;;11.00;2.40;;;;;;;4.96;68.13;101788.31;4994237;28;108108;-66
2021/12/17 13:47:17;;;;;;;6.15;2.30;;;;;;;4.88;67.96;101788.78;5004235;28;106170;-66
2021/12/17 13:49:50;;;;;;;6.57;2.53;;;;;;;4.79;68.16;101794.66;5007801;28;107221;-65
2021/12/17 13:52:20;;;;;;;7.30;2.65;;;;;;;4.70;68.24;101793.38;5006560;28;105824;-65
2021/12/17 13:54:47;;;;;;;6.10;2.90;;;;;;;4.60;68.54;101802.81;5007690;28;105834;-64
2021/12/17 13:57:16;;;;;;;5.35;2.05;;;;;;;4.53;68.67;101807.63;5007073;28;105838;-65
2021/12/17 13:59:43;;;;;;;7.65;2.67;;;;;;;4.52;68.83;101800.63;5008285;28;105758;-66
2021/12/17 14:02:13;;;;;;;5.72;2.80;;;;;;;4.47;68.64;101808.84;5006164;28;106244;-63
2021/12/17 14:04:39;;;;;;;4.95;2.63;;;;;;;4.45;69.08;101804.59;5007582;28;105947;-66
2021/12/17 14:07:07;;;;;;;6.85;2.95;;;;;;;4.44;69.27;101808.16;5007138;28;105819;-66
2021/12/17 14:09:32;;;;;;;10.18;3.35;;;;;;;4.40;69.32;101808.34;5007733;28;105785;-66
2021/12/17 14:12:07;;;;;;;4.63;3.50;;;;;;;4.38;69.53;101814.66;5007141;28;105653;-64
2021/12/17 14:14:34;;;;;;;8.35;3.15;;;;;;;4.37;69.55;101812.94;5007579;28;105998;-66
2021/12/17 14:17:02;;;;;;;6.68;2.80;;;;;;;4.34;69.56;101808.69;5010267;28;106378;-66
2021/12/17 14:19:45;;;;;;;6.75;3.00;;;;;;;4.34;69.92;101808.69;5010792;28;106009;-63
2021/12/17 14:22:30;;;;;;;5.25;3.00;;;;;;;4.36;69.94;101817.38;5010839;28;106423;-66